createdAt,value
2024-01-27T00:07:35.268Z,97900.38
2024-01-27T00:27:37.483Z,97881.22
2024-01-27T00:47:39.520Z,97879.31
2024-01-27T01:07:41.359Z,97832.03
2024-01-27T01:27:43.242Z,97838.66
2024-01-27T01:47:45.729Z,97841.56
2024-01-27T02:07:47.747Z,97839.63
2024-01-27T02:27:51.135Z,97771.19
2024-01-27T02:47:53.161Z,97760.59
2024-01-27T03:07:55.735Z,97772.84
2024-01-27T03:27:57.558Z,97770.47
2024-01-27T03:48:00.548Z,97768.56
2024-01-27T04:08:02.560Z,97733.78
2024-01-27T04:28:05.185Z,97731.38
2024-01-27T04:48:07.321Z,97734.19
2024-01-27T05:08:10.311Z,97733.22
2024-01-27T05:28:13.425Z,97747.22
2024-01-27T05:48:16.959Z,97750.66
2024-01-27T06:08:19.606Z,97731.72
2024-01-27T06:28:22.333Z,97731.88
2024-01-27T06:48:26.751Z,97771.09
2024-01-27T07:08:28.680Z,97722.34
2024-01-27T07:28:32.028Z,97683.53
2024-01-27T07:48:34.236Z,97737.03
2024-01-27T08:08:36.123Z,97791.34
2024-01-27T08:28:38.938Z,97799.81
2024-01-27T08:48:45.631Z,97776.88
2024-01-27T09:08:47.518Z,97771.34
2024-01-27T09:28:55.450Z,97773.50
2024-01-27T09:48:57.779Z,97765.50
2024-01-27T10:08:59.805Z,97794.47
2024-01-27T10:29:02.875Z,97803.38
2024-01-27T10:49:06.041Z,97846.78
2024-01-27T11:09:09.841Z,97881.38
2024-01-27T11:29:20.583Z,97884.44
2024-01-27T11:49:22.668Z,97902.91
2024-01-27T12:09:24.618Z,97909.31
2024-01-27T12:29:26.793Z,97902.97
2024-01-27T12:49:28.886Z,97910.34
2024-01-27T13:09:30.862Z,97911.59
2024-01-27T13:29:33.750Z,97942.78
2024-01-27T13:49:37.809Z,97985.09
2024-01-27T14:09:40.026Z,98026.44
2024-01-27T14:29:41.992Z,98053.75
2024-01-27T14:49:46.592Z,98098.56
2024-01-27T15:09:48.630Z,98116.53
2024-01-27T15:29:51.788Z,98165.34
2024-01-27T15:49:58.485Z,98188.78
2024-01-27T16:10:02.875Z,98225.72
2024-01-27T16:30:05.243Z,98225.53
2024-01-27T16:50:08.994Z,98229.34
2024-01-27T17:10:10.891Z,98254.00
2024-01-27T17:30:13.295Z,98266.41
2024-01-27T17:50:15.665Z,98277.72
2024-01-27T18:10:17.582Z,98294.53
2024-01-27T18:30:19.625Z,98312.81
2024-01-27T18:50:21.568Z,98307.38
2024-01-27T19:10:23.601Z,98311.22
2024-01-27T19:30:27.671Z,98318.72
2024-01-27T19:50:29.746Z,98349.88
2024-01-27T20:10:31.666Z,98349.34
2024-01-27T20:30:34.876Z,98349.44
2024-01-27T20:50:36.840Z,98330.66
2024-01-27T21:10:38.638Z,98317.19
2024-01-27T21:30:40.576Z,98344.13
2024-01-27T21:50:42.594Z,98372.16
2024-01-27T22:10:46.171Z,98364.34
2024-01-27T22:30:49.560Z,98367.44
2024-01-27T22:50:52.694Z,98370.22
2024-01-27T23:10:54.612Z,98367.13
2024-01-27T23:30:56.987Z,98384.19
2024-01-27T23:50:59.824Z,98403.94
